sensor_id;sensor_type;location;lat;lon;timestamp;P1;durP1;ratioP1;P2;durP2;ratioP2
52984;SDS011;40499;47.830;19.026;2022-09-14T00:00:18;3.40;;;1.40;;
52984;SDS011;40499;47.830;19.026;2022-09-14T00:02:45;2.70;;;1.40;;
52984;SDS011;40499;47.830;19.026;2022-09-14T00:05:10;2.47;;;1.75;;
52984;SDS011;40499;47.830;19.026;2022-09-14T00:07:36;3.97;;;1.42;;
52984;SDS011;40499;47.830;19.026;2022-09-14T00:10:01;2.38;;;1.48;;
52984;SDS011;40499;47.830;19.026;2022-09-14T00:12:27;5.38;;;1.70;;
52984;SDS011;40499;47.830;19.026;2022-09-14T00:14:53;3.60;;;1.67;;
52984;SDS011;40499;47.830;19.026;2022-09-14T00:17:18;4.05;;;1.42;;
52984;SDS011;40499;47.830;19.026;2022-09-14T00:19:43;3.30;;;1.48;;
52984;SDS011;40499;47.830;19.026;2022-09-14T00:22:09;3.63;;;1.75;;
52984;SDS011;40499;47.830;19.026;2022-09-14T00:24:34;5.57;;;1.40;;
52984;SDS011;40499;47.830;19.026;2022-09-14T00:27:00;2.78;;;1.38;;
52984;SDS011;40499;47.830;19.026;2022-09-14T00:29:27;3.38;;;1.70;;
52984;SDS011;40499;47.830;19.026;2022-09-14T00:31:53;2.40;;;1.65;;
52984;SDS011;40499;47.830;19.026;2022-09-14T00:34:18;2.28;;;1.23;;
52984;SDS011;40499;47.830;19.026;2022-09-14T00:36:45;3.00;;;1.50;;
52984;SDS011;40499;47.830;19.026;2022-09-14T00:39:12;2.78;;;1.40;;
52984;SDS011;40499;47.830;19.026;2022-09-14T00:41:39;3.13;;;1.60;;
52984;SDS011;40499;47.830;19.026;2022-09-14T00:46:44;2.70;;;1.60;;
52984;SDS011;40499;47.830;19.026;2022-09-14T00:49:13;3.45;;;1.88;;
52984;SDS011;40499;47.830;19.026;2022-09-14T00:51:44;3.00;;;1.75;;
52984;SDS011;40499;47.830;19.026;2022-09-14T00:54:14;2.05;;;1.52;;
52984;SDS011;40499;47.830;19.026;2022-09-14T00:56:40;2.47;;;1.48;;
52984;SDS011;40499;47.830;19.026;2022-09-14T00:59:06;4.63;;;1.60;;
52984;SDS011;40499;47.830;19.026;2022-09-14T01:01:37;2.42;;;1.50;;
52984;SDS011;40499;47.830;19.026;2022-09-14T01:04:02;2.22;;;1.50;;
52984;SDS011;40499;47.830;19.026;2022-09-14T01:14:48;4.22;;;1.50;;
52984;SDS011;40499;47.830;19.026;2022-09-14T01:27:57;1.85;;;1.30;;
52984;SDS011;40499;47.830;19.026;2022-09-14T01:30:25;3.15;;;1.63;;
52984;SDS011;40499;47.830;19.026;2022-09-14T01:38:00;3.00;;;1.65;;
52984;SDS011;40499;47.830;19.026;2022-09-14T01:40:33;2.65;;;1.70;;
52984;SDS011;40499;47.830;19.026;2022-09-14T01:45:35;3.53;;;1.88;;
52984;SDS011;40499;47.830;19.026;2022-09-14T01:48:06;3.00;;;1.73;;
52984;SDS011;40499;47.830;19.026;2022-09-14T01:53:13;5.15;;;1.98;;
52984;SDS011;40499;47.830;19.026;2022-09-14T01:55:59;3.60;;;1.90;;
52984;SDS011;40499;47.830;19.026;2022-09-14T02:00:56;2.47;;;1.53;;
52984;SDS011;40499;47.830;19.026;2022-09-14T02:03:26;3.25;;;2.00;;
52984;SDS011;40499;47.830;19.026;2022-09-14T02:08:44;3.72;;;2.08;;
52984;SDS011;40499;47.830;19.026;2022-09-14T02:11:11;5.18;;;1.52;;
52984;SDS011;40499;47.830;19.026;2022-09-14T02:13:36;3.25;;;1.70;;
52984;SDS011;40499;47.830;19.026;2022-09-14T02:16:02;3.38;;;1.65;;
52984;SDS011;40499;47.830;19.026;2022-09-14T02:18:27;5.70;;;2.30;;
52984;SDS011;40499;47.830;19.026;2022-09-14T02:21:07;3.78;;;2.10;;
52984;SDS011;40499;47.830;19.026;2022-09-14T02:23:37;3.13;;;2.00;;
52984;SDS011;40499;47.830;19.026;2022-09-14T02:26:03;4.45;;;2.10;;
52984;SDS011;40499;47.830;19.026;2022-09-14T02:28:29;3.20;;;1.85;;
52984;SDS011;40499;47.830;19.026;2022-09-14T02:31:32;2.92;;;1.67;;
52984;SDS011;40499;47.830;19.026;2022-09-14T02:50:01;4.82;;;2.58;;
52984;SDS011;40499;47.830;19.026;2022-09-14T02:55:20;2.67;;;1.83;;
52984;SDS011;40499;47.830;19.026;2022-09-14T03:00:36;6.35;;;2.00;;
52984;SDS011;40499;47.830;19.026;2022-09-14T03:03:04;3.38;;;1.60;;
52984;SDS011;40499;47.830;19.026;2022-09-14T03:05:30;4.13;;;1.75;;
52984;SDS011;40499;47.830;19.026;2022-09-14T03:07:57;2.72;;;1.85;;
52984;SDS011;40499;47.830;19.026;2022-09-14T03:10:23;5.40;;;1.92;;
52984;SDS011;40499;47.830;19.026;2022-09-14T03:12:48;4.15;;;1.88;;
52984;SDS011;40499;47.830;19.026;2022-09-14T03:15:14;2.80;;;1.60;;
52984;SDS011;40499;47.830;19.026;2022-09-14T03:17:43;2.78;;;1.60;;
52984;SDS011;40499;47.830;19.026;2022-09-14T03:20:10;2.97;;;1.95;;
52984;SDS011;40499;47.830;19.026;2022-09-14T03:22:35;3.53;;;1.63;;
52984;SDS011;40499;47.830;19.026;2022-09-14T03:25:00;3.83;;;1.67;;
52984;SDS011;40499;47.830;19.026;2022-09-14T03:27:26;4.72;;;1.70;;
52984;SDS011;40499;47.830;19.026;2022-09-14T03:29:52;10.80;;;2.38;;
52984;SDS011;40499;47.830;19.026;2022-09-14T03:32:17;3.72;;;1.98;;
52984;SDS011;40499;47.830;19.026;2022-09-14T03:34:42;3.95;;;1.88;;
52984;SDS011;40499;47.830;19.026;2022-09-14T03:37:08;2.65;;;1.63;;
52984;SDS011;40499;47.830;19.026;2022-09-14T03:39:33;2.92;;;1.67;;
52984;SDS011;40499;47.830;19.026;2022-09-14T03:41:58;4.07;;;2.03;;
52984;SDS011;40499;47.830;19.026;2022-09-14T03:44:24;3.45;;;1.58;;
52984;SDS011;40499;47.830;19.026;2022-09-14T03:46:49;2.42;;;1.40;;
52984;SDS011;40499;47.830;19.026;2022-09-14T03:49:15;4.93;;;1.88;;
52984;SDS011;40499;47.830;19.026;2022-09-14T03:51:40;3.75;;;2.10;;
52984;SDS011;40499;47.830;19.026;2022-09-14T03:54:06;3.92;;;1.80;;
52984;SDS011;40499;47.830;19.026;2022-09-14T03:56:31;5.13;;;1.80;;
52984;SDS011;40499;47.830;19.026;2022-09-14T03:58:56;2.15;;;1.52;;
52984;SDS011;40499;47.830;19.026;2022-09-14T04:01:22;3.42;;;1.70;;
52984;SDS011;40499;47.830;19.026;2022-09-14T04:03:48;4.40;;;1.58;;
52984;SDS011;40499;47.830;19.026;2022-09-14T04:06:14;5.43;;;2.42;;
52984;SDS011;40499;47.830;19.026;2022-09-14T04:08:41;2.35;;;1.33;;
52984;SDS011;40499;47.830;19.026;2022-09-14T04:11:12;3.58;;;1.90;;
52984;SDS011;40499;47.830;19.026;2022-09-14T04:16:08;2.95;;;1.52;;
52984;SDS011;40499;47.830;19.026;2022-09-14T04:18:34;2.70;;;1.25;;
52984;SDS011;40499;47.830;19.026;2022-09-14T04:21:02;2.25;;;1.42;;
52984;SDS011;40499;47.830;19.026;2022-09-14T04:23:30;4.05;;;1.45;;
52984;SDS011;40499;47.830;19.026;2022-09-14T04:25:56;3.20;;;2.03;;
52984;SDS011;40499;47.830;19.026;2022-09-14T04:28:21;5.25;;;1.85;;
52984;SDS011;40499;47.830;19.026;2022-09-14T04:30:53;10.50;;;1.58;;
52984;SDS011;40499;47.830;19.026;2022-09-14T04:33:19;3.60;;;1.67;;
52984;SDS011;40499;47.830;19.026;2022-09-14T04:35:54;2.90;;;1.45;;
52984;SDS011;40499;47.830;19.026;2022-09-14T04:38:22;3.97;;;1.50;;
52984;SDS011;40499;47.830;19.026;2022-09-14T04:40:48;3.75;;;1.60;;
52984;SDS011;40499;47.830;19.026;2022-09-14T04:46:22;2.92;;;1.40;;
52984;SDS011;40499;47.830;19.026;2022-09-14T04:49:03;4.43;;;1.70;;
52984;SDS011;40499;47.830;19.026;2022-09-14T04:51:29;3.05;;;1.50;;
52984;SDS011;40499;47.830;19.026;2022-09-14T04:53:56;3.88;;;1.80;;
52984;SDS011;40499;47.830;19.026;2022-09-14T04:56:23;3.20;;;1.33;;
52984;SDS011;40499;47.830;19.026;2022-09-14T04:58:51;3.17;;;1.60;;
52984;SDS011;40499;47.830;19.026;2022-09-14T05:01:20;2.53;;;1.45;;
52984;SDS011;40499;47.830;19.026;2022-09-14T05:03:47;2.00;;;1.38;;
52984;SDS011;40499;47.830;19.026;2022-09-14T05:06:19;2.55;;;1.63;;
52984;SDS011;40499;47.830;19.026;2022-09-14T05:08:47;3.17;;;1.67;;
52984;SDS011;40499;47.830;19.026;2022-09-14T05:11:16;2.58;;;1.60;;
52984;SDS011;40499;47.830;19.026;2022-09-14T05:13:43;3.03;;;1.73;;
52984;SDS011;40499;47.830;19.026;2022-09-14T05:19:03;3.22;;;1.42;;
52984;SDS011;40499;47.830;19.026;2022-09-14T05:21:31;2.85;;;2.00;;
52984;SDS011;40499;47.830;19.026;2022-09-14T05:23:59;3.00;;;1.88;;
52984;SDS011;40499;47.830;19.026;2022-09-14T05:26:27;2.80;;;1.50;;
52984;SDS011;40499;47.830;19.026;2022-09-14T05:28:54;5.30;;;1.92;;
52984;SDS011;40499;47.830;19.026;2022-09-14T05:31:21;3.20;;;1.50;;
52984;SDS011;40499;47.830;19.026;2022-09-14T05:33:48;3.53;;;1.92;;
52984;SDS011;40499;47.830;19.026;2022-09-14T05:36:14;3.80;;;1.67;;
52984;SDS011;40499;47.830;19.026;2022-09-14T05:38:40;3.53;;;2.00;;
52984;SDS011;40499;47.830;19.026;2022-09-14T05:41:06;2.58;;;1.48;;
52984;SDS011;40499;47.830;19.026;2022-09-14T05:43:32;5.40;;;1.35;;
52984;SDS011;40499;47.830;19.026;2022-09-14T05:46:02;3.30;;;1.73;;
52984;SDS011;40499;47.830;19.026;2022-09-14T05:48:32;3.65;;;1.80;;
52984;SDS011;40499;47.830;19.026;2022-09-14T05:51:05;5.10;;;1.60;;
52984;SDS011;40499;47.830;19.026;2022-09-14T05:53:33;3.33;;;1.65;;
52984;SDS011;40499;47.830;19.026;2022-09-14T05:55:59;5.05;;;1.40;;
52984;SDS011;40499;47.830;19.026;2022-09-14T05:58:25;3.08;;;1.70;;
52984;SDS011;40499;47.830;19.026;2022-09-14T06:00:51;3.67;;;1.80;;
52984;SDS011;40499;47.830;19.026;2022-09-14T06:03:16;2.70;;;1.67;;
52984;SDS011;40499;47.830;19.026;2022-09-14T06:05:41;4.38;;;1.80;;
52984;SDS011;40499;47.830;19.026;2022-09-14T06:08:07;5.00;;;1.75;;
52984;SDS011;40499;47.830;19.026;2022-09-14T06:10:32;2.78;;;1.70;;
52984;SDS011;40499;47.830;19.026;2022-09-14T06:12:58;3.55;;;1.50;;
52984;SDS011;40499;47.830;19.026;2022-09-14T06:15:24;6.45;;;1.58;;
52984;SDS011;40499;47.830;19.026;2022-09-14T06:17:49;3.60;;;1.88;;
52984;SDS011;40499;47.830;19.026;2022-09-14T06:20:15;5.75;;;1.63;;
52984;SDS011;40499;47.830;19.026;2022-09-14T06:22:42;7.70;;;1.77;;
52984;SDS011;40499;47.830;19.026;2022-09-14T06:25:08;4.05;;;1.90;;
52984;SDS011;40499;47.830;19.026;2022-09-14T06:27:35;6.65;;;1.80;;
52984;SDS011;40499;47.830;19.026;2022-09-14T06:30:01;2.67;;;1.52;;
52984;SDS011;40499;47.830;19.026;2022-09-14T06:32:28;4.80;;;1.45;;
52984;SDS011;40499;47.830;19.026;2022-09-14T06:34:55;2.75;;;1.45;;
52984;SDS011;40499;47.830;19.026;2022-09-14T06:37:20;3.55;;;1.60;;
52984;SDS011;40499;47.830;19.026;2022-09-14T06:39:45;8.55;;;2.45;;
52984;SDS011;40499;47.830;19.026;2022-09-14T06:42:11;5.90;;;1.83;;
52984;SDS011;40499;47.830;19.026;2022-09-14T06:44:36;2.17;;;1.33;;
52984;SDS011;40499;47.830;19.026;2022-09-14T06:47:02;3.65;;;1.80;;
52984;SDS011;40499;47.830;19.026;2022-09-14T06:49:27;3.38;;;1.60;;
52984;SDS011;40499;47.830;19.026;2022-09-14T06:51:53;4.30;;;1.90;;
52984;SDS011;40499;47.830;19.026;2022-09-14T06:54:20;2.10;;;1.50;;
52984;SDS011;40499;47.830;19.026;2022-09-14T06:56:46;6.13;;;1.67;;
52984;SDS011;40499;47.830;19.026;2022-09-14T06:59:12;2.83;;;1.67;;
52984;SDS011;40499;47.830;19.026;2022-09-14T07:01:39;5.05;;;2.00;;
52984;SDS011;40499;47.830;19.026;2022-09-14T07:04:06;3.45;;;1.80;;
52984;SDS011;40499;47.830;19.026;2022-09-14T07:06:37;5.40;;;1.52;;
52984;SDS011;40499;47.830;19.026;2022-09-14T07:09:04;2.97;;;1.80;;
52984;SDS011;40499;47.830;19.026;2022-09-14T07:11:30;2.72;;;1.80;;
52984;SDS011;40499;47.830;19.026;2022-09-14T07:13:56;3.58;;;1.90;;
52984;SDS011;40499;47.830;19.026;2022-09-14T07:16:23;3.25;;;2.10;;
52984;SDS011;40499;47.830;19.026;2022-09-14T07:18:53;5.78;;;1.90;;
52984;SDS011;40499;47.830;19.026;2022-09-14T07:21:23;3.47;;;1.95;;
52984;SDS011;40499;47.830;19.026;2022-09-14T07:23:49;3.05;;;1.58;;
52984;SDS011;40499;47.830;19.026;2022-09-14T07:26:15;4.50;;;2.00;;
52984;SDS011;40499;47.830;19.026;2022-09-14T07:28:41;4.07;;;2.10;;
52984;SDS011;40499;47.830;19.026;2022-09-14T07:33:42;3.47;;;1.70;;
52984;SDS011;40499;47.830;19.026;2022-09-14T07:36:09;6.43;;;1.40;;
52984;SDS011;40499;47.830;19.026;2022-09-14T07:38:36;3.72;;;1.60;;
52984;SDS011;40499;47.830;19.026;2022-09-14T07:41:02;2.25;;;1.48;;
52984;SDS011;40499;47.830;19.026;2022-09-14T07:43:28;3.17;;;1.63;;
52984;SDS011;40499;47.830;19.026;2022-09-14T07:45:54;3.97;;;1.90;;
52984;SDS011;40499;47.830;19.026;2022-09-14T07:48:19;6.30;;;1.73;;
52984;SDS011;40499;47.830;19.026;2022-09-14T07:50:45;2.83;;;1.98;;
52984;SDS011;40499;47.830;19.026;2022-09-14T07:53:10;3.45;;;1.80;;
52984;SDS011;40499;47.830;19.026;2022-09-14T07:55:39;4.60;;;1.73;;
52984;SDS011;40499;47.830;19.026;2022-09-14T07:58:05;3.75;;;1.75;;
52984;SDS011;40499;47.830;19.026;2022-09-14T08:00:31;4.38;;;1.45;;
52984;SDS011;40499;47.830;19.026;2022-09-14T08:02:57;2.58;;;1.75;;
52984;SDS011;40499;47.830;19.026;2022-09-14T08:05:23;3.25;;;1.73;;
52984;SDS011;40499;47.830;19.026;2022-09-14T08:07:53;4.05;;;1.60;;
52984;SDS011;40499;47.830;19.026;2022-09-14T08:10:19;4.63;;;1.90;;
52984;SDS011;40499;47.830;19.026;2022-09-14T08:12:49;2.75;;;1.80;;
52984;SDS011;40499;47.830;19.026;2022-09-14T08:15:15;4.82;;;2.10;;
52984;SDS011;40499;47.830;19.026;2022-09-14T08:17:40;7.63;;;1.75;;
52984;SDS011;40499;47.830;19.026;2022-09-14T08:20:06;3.88;;;2.13;;
52984;SDS011;40499;47.830;19.026;2022-09-14T08:22:31;4.20;;;2.10;;
52984;SDS011;40499;47.830;19.026;2022-09-14T08:24:57;7.95;;;3.60;;
52984;SDS011;40499;47.830;19.026;2022-09-14T08:27:22;9.70;;;4.82;;
52984;SDS011;40499;47.830;19.026;2022-09-14T08:29:48;7.78;;;3.88;;
52984;SDS011;40499;47.830;19.026;2022-09-14T08:32:13;7.30;;;3.22;;
52984;SDS011;40499;47.830;19.026;2022-09-14T08:34:38;4.07;;;2.10;;
52984;SDS011;40499;47.830;19.026;2022-09-14T08:37:04;4.97;;;2.38;;
52984;SDS011;40499;47.830;19.026;2022-09-14T08:39:29;6.80;;;2.60;;
52984;SDS011;40499;47.830;19.026;2022-09-14T08:41:55;5.65;;;2.25;;
52984;SDS011;40499;47.830;19.026;2022-09-14T08:44:27;4.03;;;1.83;;
52984;SDS011;40499;47.830;19.026;2022-09-14T08:49:51;6.32;;;2.80;;
52984;SDS011;40499;47.830;19.026;2022-09-14T08:52:27;7.18;;;2.80;;
52984;SDS011;40499;47.830;19.026;2022-09-14T08:55:00;4.65;;;2.30;;
52984;SDS011;40499;47.830;19.026;2022-09-14T08:58:01;13.18;;;6.13;;
52984;SDS011;40499;47.830;19.026;2022-09-14T09:00:43;8.73;;;4.35;;
52984;SDS011;40499;47.830;19.026;2022-09-14T09:03:18;8.68;;;3.35;;
52984;SDS011;40499;47.830;19.026;2022-09-14T09:05:52;4.50;;;2.00;;
52984;SDS011;40499;47.830;19.026;2022-09-14T09:10:51;7.57;;;2.47;;
52984;SDS011;40499;47.830;19.026;2022-09-14T09:13:19;7.00;;;2.20;;
52984;SDS011;40499;47.830;19.026;2022-09-14T09:15:49;3.33;;;1.80;;
52984;SDS011;40499;47.830;19.026;2022-09-14T09:20:52;2.50;;;1.58;;
52984;SDS011;40499;47.830;19.026;2022-09-14T09:23:22;4.22;;;1.95;;
52984;SDS011;40499;47.830;19.026;2022-09-14T09:25:50;4.05;;;2.15;;
52984;SDS011;40499;47.830;19.026;2022-09-14T09:28:48;3.60;;;2.10;;
52984;SDS011;40499;47.830;19.026;2022-09-14T09:31:17;5.45;;;3.60;;
52984;SDS011;40499;47.830;19.026;2022-09-14T09:33:48;9.38;;;4.05;;
52984;SDS011;40499;47.830;19.026;2022-09-14T09:36:14;7.10;;;3.38;;
52984;SDS011;40499;47.830;19.026;2022-09-14T09:38:41;4.63;;;2.45;;
52984;SDS011;40499;47.830;19.026;2022-09-14T09:41:19;5.28;;;2.55;;
52984;SDS011;40499;47.830;19.026;2022-09-14T09:44:04;6.68;;;1.67;;
52984;SDS011;40499;47.830;19.026;2022-09-14T09:49:01;7.95;;;2.45;;
52984;SDS011;40499;47.830;19.026;2022-09-14T09:51:29;6.03;;;2.78;;
52984;SDS011;40499;47.830;19.026;2022-09-14T09:54:00;8.20;;;2.63;;
52984;SDS011;40499;47.830;19.026;2022-09-14T09:56:28;6.20;;;2.78;;
52984;SDS011;40499;47.830;19.026;2022-09-14T09:58:56;4.88;;;2.30;;
52984;SDS011;40499;47.830;19.026;2022-09-14T10:04:20;5.97;;;2.65;;
52984;SDS011;40499;47.830;19.026;2022-09-14T10:06:49;3.30;;;1.88;;
52984;SDS011;40499;47.830;19.026;2022-09-14T10:09:18;3.70;;;1.95;;
52984;SDS011;40499;47.830;19.026;2022-09-14T10:12:08;5.55;;;2.58;;
52984;SDS011;40499;47.830;19.026;2022-09-14T10:14:39;4.10;;;2.10;;
52984;SDS011;40499;47.830;19.026;2022-09-14T10:19:49;4.72;;;2.38;;
52984;SDS011;40499;47.830;19.026;2022-09-14T10:22:33;6.50;;;2.15;;
52984;SDS011;40499;47.830;19.026;2022-09-14T10:30:02;3.97;;;2.28;;
52984;SDS011;40499;47.830;19.026;2022-09-14T10:32:29;4.60;;;2.40;;
52984;SDS011;40499;47.830;19.026;2022-09-14T10:34:57;3.30;;;2.05;;
52984;SDS011;40499;47.830;19.026;2022-09-14T10:37:43;5.22;;;2.47;;
52984;SDS011;40499;47.830;19.026;2022-09-14T10:40:18;4.97;;;2.13;;
52984;SDS011;40499;47.830;19.026;2022-09-14T10:43:08;5.35;;;2.58;;
52984;SDS011;40499;47.830;19.026;2022-09-14T10:45:40;4.25;;;2.00;;
52984;SDS011;40499;47.830;19.026;2022-09-14T10:51:05;4.13;;;1.88;;
52984;SDS011;40499;47.830;19.026;2022-09-14T10:56:33;4.78;;;2.20;;
52984;SDS011;40499;47.830;19.026;2022-09-14T11:05:07;4.65;;;1.73;;
52984;SDS011;40499;47.830;19.026;2022-09-14T11:28:58;3.25;;;1.90;;
52984;SDS011;40499;47.830;19.026;2022-09-14T11:34:19;3.05;;;1.63;;
52984;SDS011;40499;47.830;19.026;2022-09-14T11:36:53;2.88;;;1.70;;
52984;SDS011;40499;47.830;19.026;2022-09-14T11:39:28;2.88;;;1.90;;
52984;SDS011;40499;47.830;19.026;2022-09-14T11:44:29;5.43;;;2.00;;
52984;SDS011;40499;47.830;19.026;2022-09-14T11:47:07;3.63;;;2.20;;
52984;SDS011;40499;47.830;19.026;2022-09-14T11:52:31;4.28;;;2.10;;
52984;SDS011;40499;47.830;19.026;2022-09-14T11:54:57;3.08;;;1.90;;
52984;SDS011;40499;47.830;19.026;2022-09-14T11:57:25;4.63;;;1.88;;
52984;SDS011;40499;47.830;19.026;2022-09-14T12:12:41;3.13;;;2.33;;
52984;SDS011;40499;47.830;19.026;2022-09-14T12:15:17;4.22;;;2.15;;
52984;SDS011;40499;47.830;19.026;2022-09-14T12:20:30;2.63;;;1.80;;
52984;SDS011;40499;47.830;19.026;2022-09-14T12:23:04;4.65;;;2.33;;
52984;SDS011;40499;47.830;19.026;2022-09-14T12:25:36;3.03;;;1.83;;
52984;SDS011;40499;47.830;19.026;2022-09-14T12:28:19;5.53;;;2.20;;
52984;SDS011;40499;47.830;19.026;2022-09-14T12:31:27;4.50;;;2.35;;
52984;SDS011;40499;47.830;19.026;2022-09-14T12:39:33;5.80;;;2.30;;
52984;SDS011;40499;47.830;19.026;2022-09-14T12:49:48;4.55;;;2.00;;
52984;SDS011;40499;47.830;19.026;2022-09-14T12:52:50;5.55;;;2.38;;
52984;SDS011;40499;47.830;19.026;2022-09-14T12:55:16;3.37;;;2.10;;
52984;SDS011;40499;47.830;19.026;2022-09-14T12:57:55;4.25;;;2.30;;
52984;SDS011;40499;47.830;19.026;2022-09-14T13:00:31;2.63;;;1.80;;
52984;SDS011;40499;47.830;19.026;2022-09-14T13:03:21;3.15;;;2.03;;
52984;SDS011;40499;47.830;19.026;2022-09-14T13:06:02;4.05;;;2.42;;
52984;SDS011;40499;47.830;19.026;2022-09-14T13:08:27;5.57;;;2.60;;
52984;SDS011;40499;47.830;19.026;2022-09-14T13:10:52;6.65;;;2.10;;
52984;SDS011;40499;47.830;19.026;2022-09-14T13:13:22;3.30;;;2.10;;
52984;SDS011;40499;47.830;19.026;2022-09-14T13:16:12;4.28;;;2.17;;
52984;SDS011;40499;47.830;19.026;2022-09-14T13:18:42;3.97;;;2.25;;
52984;SDS011;40499;47.830;19.026;2022-09-14T13:21:19;5.25;;;2.03;;
52984;SDS011;40499;47.830;19.026;2022-09-14T13:23:46;4.88;;;2.03;;
52984;SDS011;40499;47.830;19.026;2022-09-14T13:26:19;4.78;;;1.92;;
52984;SDS011;40499;47.830;19.026;2022-09-14T13:28:48;3.80;;;2.10;;
52984;SDS011;40499;47.830;19.026;2022-09-14T13:31:17;5.95;;;2.53;;
52984;SDS011;40499;47.830;19.026;2022-09-14T13:33:48;3.97;;;1.98;;
52984;SDS011;40499;47.830;19.026;2022-09-14T13:36:16;3.60;;;1.92;;
52984;SDS011;40499;47.830;19.026;2022-09-14T13:38:44;3.80;;;1.67;;
52984;SDS011;40499;47.830;19.026;2022-09-14T13:41:11;7.47;;;2.05;;
52984;SDS011;40499;47.830;19.026;2022-09-14T13:43:41;4.28;;;1.65;;
52984;SDS011;40499;47.830;19.026;2022-09-14T13:46:08;3.92;;;2.08;;
52984;SDS011;40499;47.830;19.026;2022-09-14T13:48:36;2.75;;;1.52;;
52984;SDS011;40499;47.830;19.026;2022-09-14T13:51:06;3.38;;;1.55;;
52984;SDS011;40499;47.830;19.026;2022-09-14T13:53:37;2.83;;;1.55;;
52984;SDS011;40499;47.830;19.026;2022-09-14T13:58:40;4.68;;;2.22;;
52984;SDS011;40499;47.830;19.026;2022-09-14T14:01:05;2.63;;;1.90;;
52984;SDS011;40499;47.830;19.026;2022-09-14T14:03:33;3.30;;;1.70;;
52984;SDS011;40499;47.830;19.026;2022-09-14T14:06:04;2.28;;;1.20;;
52984;SDS011;40499;47.830;19.026;2022-09-14T14:08:50;5.70;;;2.00;;
52984;SDS011;40499;47.830;19.026;2022-09-14T14:11:25;4.85;;;1.75;;
52984;SDS011;40499;47.830;19.026;2022-09-14T14:13:52;3.28;;;1.65;;
52984;SDS011;40499;47.830;19.026;2022-09-14T14:16:24;4.30;;;1.63;;
52984;SDS011;40499;47.830;19.026;2022-09-14T14:18:56;6.03;;;2.72;;
52984;SDS011;40499;47.830;19.026;2022-09-14T14:24:15;3.97;;;1.70;;
52984;SDS011;40499;47.830;19.026;2022-09-14T14:26:49;2.77;;;1.70;;
52984;SDS011;40499;47.830;19.026;2022-09-14T14:29:16;2.72;;;1.58;;
52984;SDS011;40499;47.830;19.026;2022-09-14T14:31:43;2.42;;;1.60;;
52984;SDS011;40499;47.830;19.026;2022-09-14T14:34:27;4.93;;;1.75;;
52984;SDS011;40499;47.830;19.026;2022-09-14T14:36:53;2.08;;;1.20;;
52984;SDS011;40499;47.830;19.026;2022-09-14T14:39:20;5.25;;;2.10;;
52984;SDS011;40499;47.830;19.026;2022-09-14T14:41:48;3.97;;;1.80;;
52984;SDS011;40499;47.830;19.026;2022-09-14T14:44:17;4.60;;;2.05;;
52984;SDS011;40499;47.830;19.026;2022-09-14T14:46:45;4.10;;;1.80;;
52984;SDS011;40499;47.830;19.026;2022-09-14T14:49:11;2.70;;;1.60;;
52984;SDS011;40499;47.830;19.026;2022-09-14T14:51:37;2.63;;;1.55;;
52984;SDS011;40499;47.830;19.026;2022-09-14T14:54:03;3.08;;;2.03;;
52984;SDS011;40499;47.830;19.026;2022-09-14T14:56:29;4.25;;;1.50;;
52984;SDS011;40499;47.830;19.026;2022-09-14T14:58:55;3.15;;;1.70;;
52984;SDS011;40499;47.830;19.026;2022-09-14T15:01:20;4.22;;;2.25;;
52984;SDS011;40499;47.830;19.026;2022-09-14T15:03:46;2.83;;;1.83;;
52984;SDS011;40499;47.830;19.026;2022-09-14T15:06:19;4.03;;;1.77;;
52984;SDS011;40499;47.830;19.026;2022-09-14T15:08:47;5.20;;;1.98;;
52984;SDS011;40499;47.830;19.026;2022-09-14T15:11:17;2.33;;;1.50;;
52984;SDS011;40499;47.830;19.026;2022-09-14T15:13:43;2.33;;;1.40;;
52984;SDS011;40499;47.830;19.026;2022-09-14T15:16:09;2.58;;;1.45;;
52984;SDS011;40499;47.830;19.026;2022-09-14T15:18:34;5.43;;;2.30;;
52984;SDS011;40499;47.830;19.026;2022-09-14T15:21:00;2.88;;;1.65;;
52984;SDS011;40499;47.830;19.026;2022-09-14T15:23:25;5.00;;;1.60;;
52984;SDS011;40499;47.830;19.026;2022-09-14T15:25:51;3.70;;;1.60;;
52984;SDS011;40499;47.830;19.026;2022-09-14T15:28:17;2.40;;;1.42;;
52984;SDS011;40499;47.830;19.026;2022-09-14T15:30:42;3.45;;;1.20;;
52984;SDS011;40499;47.830;19.026;2022-09-14T15:33:08;2.67;;;1.52;;
52984;SDS011;40499;47.830;19.026;2022-09-14T15:35:33;2.65;;;1.42;;
52984;SDS011;40499;47.830;19.026;2022-09-14T15:37:58;2.08;;;1.23;;
52984;SDS011;40499;47.830;19.026;2022-09-14T15:40:24;2.70;;;1.25;;
52984;SDS011;40499;47.830;19.026;2022-09-14T15:42:49;2.72;;;1.48;;
52984;SDS011;40499;47.830;19.026;2022-09-14T15:45:15;2.42;;;1.02;;
52984;SDS011;40499;47.830;19.026;2022-09-14T15:47:41;2.42;;;1.48;;
52984;SDS011;40499;47.830;19.026;2022-09-14T15:50:06;3.42;;;1.75;;
52984;SDS011;40499;47.830;19.026;2022-09-14T15:52:35;1.92;;;1.38;;
52984;SDS011;40499;47.830;19.026;2022-09-14T15:55:03;5.00;;;1.45;;
52984;SDS011;40499;47.830;19.026;2022-09-14T15:57:29;3.97;;;1.45;;
52984;SDS011;40499;47.830;19.026;2022-09-14T15:59:55;2.88;;;1.20;;
52984;SDS011;40499;47.830;19.026;2022-09-14T16:02:20;4.22;;;1.60;;
52984;SDS011;40499;47.830;19.026;2022-09-14T16:04:46;9.25;;;2.30;;
52984;SDS011;40499;47.830;19.026;2022-09-14T16:07:11;7.10;;;1.75;;
52984;SDS011;40499;47.830;19.026;2022-09-14T16:09:37;2.78;;;1.55;;
52984;SDS011;40499;47.830;19.026;2022-09-14T16:12:04;7.25;;;1.48;;
52984;SDS011;40499;47.830;19.026;2022-09-14T16:14:30;3.38;;;1.85;;
52984;SDS011;40499;47.830;19.026;2022-09-14T16:16:56;2.30;;;1.60;;
52984;SDS011;40499;47.830;19.026;2022-09-14T16:19:21;4.68;;;1.35;;
52984;SDS011;40499;47.830;19.026;2022-09-14T16:21:47;2.60;;;1.30;;
52984;SDS011;40499;47.830;19.026;2022-09-14T16:24:14;3.17;;;1.45;;
52984;SDS011;40499;47.830;19.026;2022-09-14T16:26:42;2.22;;;1.20;;
52984;SDS011;40499;47.830;19.026;2022-09-14T16:29:09;3.10;;;1.92;;
52984;SDS011;40499;47.830;19.026;2022-09-14T16:31:37;3.25;;;1.65;;
52984;SDS011;40499;47.830;19.026;2022-09-14T16:34:06;4.47;;;1.75;;
52984;SDS011;40499;47.830;19.026;2022-09-14T16:36:35;2.47;;;1.30;;
52984;SDS011;40499;47.830;19.026;2022-09-14T16:39:05;5.57;;;1.55;;
52984;SDS011;40499;47.830;19.026;2022-09-14T16:41:33;1.42;;;1.05;;
52984;SDS011;40499;47.830;19.026;2022-09-14T16:44:00;4.03;;;1.77;;
52984;SDS011;40499;47.830;19.026;2022-09-14T16:46:28;15.50;;;1.73;;
52984;SDS011;40499;47.830;19.026;2022-09-14T16:48:54;2.55;;;1.67;;
52984;SDS011;40499;47.830;19.026;2022-09-14T16:51:22;5.50;;;2.00;;
52984;SDS011;40499;47.830;19.026;2022-09-14T16:53:49;9.30;;;4.25;;
52984;SDS011;40499;47.830;19.026;2022-09-14T16:56:23;14.90;;;4.93;;
52984;SDS011;40499;47.830;19.026;2022-09-14T17:01:17;4.63;;;1.95;;
52984;SDS011;40499;47.830;19.026;2022-09-14T17:03:48;3.65;;;1.85;;
52984;SDS011;40499;47.830;19.026;2022-09-14T17:06:16;7.68;;;3.38;;
52984;SDS011;40499;47.830;19.026;2022-09-14T17:08:43;7.40;;;2.78;;
52984;SDS011;40499;47.830;19.026;2022-09-14T17:11:10;5.22;;;2.80;;
52984;SDS011;40499;47.830;19.026;2022-09-14T17:13:36;8.45;;;3.50;;
52984;SDS011;40499;47.830;19.026;2022-09-14T17:16:06;6.68;;;4.13;;
52984;SDS011;40499;47.830;19.026;2022-09-14T17:18:37;6.33;;;2.83;;
52984;SDS011;40499;47.830;19.026;2022-09-14T17:21:04;9.07;;;3.78;;
52984;SDS011;40499;47.830;19.026;2022-09-14T17:23:34;11.60;;;4.40;;
52984;SDS011;40499;47.830;19.026;2022-09-14T17:26:04;13.07;;;4.78;;
52984;SDS011;40499;47.830;19.026;2022-09-14T17:28:31;10.32;;;4.45;;
52984;SDS011;40499;47.830;19.026;2022-09-14T17:30:59;6.25;;;3.05;;